Time;durP1;ratioP1;P1;durP2;ratioP2;P2;SDS_P1;SDS_P2;PMS_P1;PMS_P2;Temp;Humidity;BMP_temperature;BMP_pressure;BME280_temperature;BME280_humidity;BME280_pressure;Samples;Min_cycle;Max_cycle;Signal;HPM_P1;HPM_P2
2022/11/10 00:01:52;;;;;;;12.87;4.73;;;10.70;90.70;;;;;;5016110;28;20536;-90
2022/11/10 00:04:18;;;;;;;15.93;6.23;;;10.70;90.80;;;;;;5015204;28;20244;-90
2022/11/10 00:06:46;;;;;;;14.03;5.77;;;10.70;90.80;;;;;;5015633;28;20227;-90
2022/11/10 00:09:11;;;;;;;14.00;5.73;;;10.70;90.70;;;;;;5016631;28;20180;-90
2022/11/10 00:11:37;;;;;;;18.73;5.47;;;10.70;90.80;;;;;;5015984;28;20185;-90
2022/11/10 00:16:59;;;;;;;19.17;6.40;;;10.60;91.00;;;;;;5017119;28;20180;-90
2022/11/10 00:19:26;;;;;;;12.53;4.70;;;10.50;91.10;;;;;;5015211;28;20304;-90
2022/11/10 00:21:51;;;;;;;20.10;6.17;;;10.50;91.10;;;;;;5015092;28;20188;-90
2022/11/10 00:24:17;;;;;;;13.40;5.30;;;10.50;91.10;;;;;;5017922;28;20575;-90
2022/11/10 00:26:43;;;;;;;15.30;5.37;;;10.50;91.10;;;;;;5019211;28;20558;-91
2022/11/10 00:29:09;;;;;;;15.17;5.50;;;10.50;91.10;;;;;;5019250;28;20186;-91
2022/11/10 00:31:36;;;;;;;16.27;5.90;;;10.50;91.10;;;;;;5017483;28;20550;-89
2022/11/10 00:34:02;;;;;;;33.90;12.03;;;10.50;91.10;;;;;;5019783;28;20178;-91
2022/11/10 00:36:28;;;;;;;16.60;6.07;;;10.40;91.10;;;;;;5022042;28;20181;-90
2022/11/10 00:38:54;;;;;;;13.77;5.47;;;10.50;91.00;;;;;;5018148;28;20243;-89
2022/11/10 00:41:20;;;;;;;17.43;5.43;;;10.40;91.10;;;;;;5030042;28;20170;-89
2022/11/10 00:43:46;;;;;;;16.00;5.67;;;10.40;91.10;;;;;;5018869;28;20182;-90
2022/11/10 00:46:12;;;;;;;14.23;5.30;;;10.40;91.10;;;;;;5015716;28;20200;-90
2022/11/10 00:48:38;;;;;;;12.73;5.67;;;10.30;91.20;;;;;;5017201;28;20181;-90
2022/11/10 00:51:04;;;;;;;13.00;5.33;;;10.30;91.20;;;;;;5016460;28;20184;-90
2022/11/10 00:53:30;;;;;;;15.47;5.17;;;10.30;91.20;;;;;;5019358;28;20224;-90
2022/11/10 00:55:55;;;;;;;11.53;4.57;;;10.30;91.20;;;;;;5014634;28;20205;-90
2022/11/10 00:58:21;;;;;;;14.67;4.27;;;10.20;91.30;;;;;;5014854;28;20189;-90
2022/11/10 01:00:46;;;;;;;10.87;4.60;;;10.20;91.30;;;;;;5014630;28;20248;-90
2022/11/10 01:03:16;;;;;;;17.50;5.03;;;10.20;91.30;;;;;;5014472;28;20181;-90
2022/11/10 01:05:43;;;;;;;12.87;4.90;;;10.20;91.40;;;;;;5015743;28;20201;-90
2022/11/10 01:08:09;;;;;;;14.30;4.70;;;10.20;91.30;;;;;;5015681;28;20170;-90
2022/11/10 01:10:35;;;;;;;18.00;6.43;;;10.20;91.20;;;;;;5014528;28;20177;-90
2022/11/10 01:13:00;;;;;;;12.60;4.30;;;10.10;91.40;;;;;;5014288;28;20264;-90
2022/11/10 01:15:26;;;;;;;17.33;5.43;;;10.10;91.50;;;;;;5016081;28;20213;-89
2022/11/10 01:17:53;;;;;;;12.73;4.60;;;10.10;91.50;;;;;;5015383;28;20170;-90
2022/11/10 01:20:19;;;;;;;10.43;4.33;;;10.10;91.40;;;;;;5015393;28;20209;-90
2022/11/10 01:22:45;;;;;;;14.50;4.60;;;10.00;91.40;;;;;;5015400;28;20248;-90
2022/11/10 01:25:10;;;;;;;12.73;4.67;;;10.00;91.40;;;;;;5015817;28;20203;-90
2022/11/10 01:27:36;;;;;;;13.30;4.27;;;10.00;91.40;;;;;;5014021;28;20173;-90
2022/11/10 01:30:02;;;;;;;13.17;4.23;;;10.00;91.50;;;;;;5014031;28;20698;-90
2022/11/10 01:32:27;;;;;;;17.77;4.47;;;9.90;91.50;;;;;;5015768;28;20169;-90
2022/11/10 01:34:53;;;;;;;15.57;4.67;;;9.90;91.50;;;;;;5014304;28;20224;-90
2022/11/10 01:37:19;;;;;;;10.97;4.07;;;9.80;91.50;;;;;;5015306;28;20170;-90
2022/11/10 01:39:44;;;;;;;15.80;5.03;;;9.90;91.50;;;;;;5016321;28;20587;-90
2022/11/10 01:42:10;;;;;;;10.87;4.90;;;9.90;91.50;;;;;;5014814;28;20184;-90
2022/11/10 01:44:41;;;;;;;16.43;4.77;;;9.90;91.50;;;;;;5014891;28;20196;-90
2022/11/10 01:47:07;;;;;;;11.57;4.80;;;9.80;91.40;;;;;;5014061;28;20702;-90
2022/11/10 01:49:34;;;;;;;9.53;4.13;;;9.80;91.60;;;;;;5013811;28;20205;-90
2022/11/10 01:52:08;;;;;;;10.93;5.13;;;9.80;91.70;;;;;;5013957;28;20178;-90
2022/11/10 01:54:38;;;;;;;11.30;4.70;;;9.80;91.70;;;;;;5013545;28;20201;-90
2022/11/10 01:57:08;;;;;;;25.87;5.73;;;9.80;91.70;;;;;;5013433;28;20553;-90
2022/11/10 01:59:40;;;;;;;14.67;5.63;;;9.80;91.70;;;;;;5013460;28;20234;-90
2022/11/10 02:02:24;;;;;;;14.77;5.00;;;9.70;91.80;;;;;;5014745;28;20232;-90
2022/11/10 02:04:50;;;;;;;16.13;4.60;;;9.70;91.80;;;;;;5014568;28;20259;-90
2022/11/10 02:07:18;;;;;;;17.40;5.73;;;9.70;91.90;;;;;;5013218;28;20259;-90
2022/11/10 02:09:43;;;;;;;8.87;4.57;;;9.80;91.80;;;;;;5015099;28;20177;-90
2022/11/10 02:12:10;;;;;;;12.80;4.77;;;9.70;91.90;;;;;;5015128;28;20188;-90
2022/11/10 02:14:36;;;;;;;15.97;4.67;;;9.80;91.90;;;;;;5014329;28;20299;-90
2022/11/10 02:17:01;;;;;;;20.07;5.17;;;9.80;91.80;;;;;;5014306;28;20197;-90
2022/11/10 02:19:27;;;;;;;16.27;5.03;;;9.70;91.80;;;;;;5013179;28;20237;-90
2022/11/10 02:21:53;;;;;;;16.47;4.60;;;9.80;91.80;;;;;;5013145;28;20182;-90
2022/11/10 02:24:18;;;;;;;17.43;4.60;;;9.80;91.80;;;;;;5013014;28;20227;-90
2022/11/10 02:26:55;;;;;;;11.43;4.23;;;9.70;91.80;;;;;;5014203;28;20178;-90
2022/11/10 02:29:22;;;;;;;10.13;4.10;;;9.70;91.80;;;;;;5013110;28;20227;-90
2022/11/10 02:31:48;;;;;;;10.17;4.87;;;9.60;91.70;;;;;;5013110;28;20277;-90
2022/11/10 02:34:14;;;;;;;12.43;5.60;;;9.60;91.80;;;;;;5013912;28;20669;-90
2022/11/10 02:36:39;;;;;;;15.97;4.30;;;9.60;91.90;;;;;;5014312;28;20532;-90
2022/11/10 02:39:05;;;;;;;13.80;4.50;;;9.70;91.90;;;;;;5013504;28;20570;-90
2022/11/10 02:41:30;;;;;;;14.53;5.27;;;9.70;91.90;;;;;;5013037;28;20187;-90
2022/11/10 02:43:57;;;;;;;15.20;4.93;;;9.60;91.80;;;;;;5012926;28;20181;-90
2022/11/10 02:46:23;;;;;;;20.93;5.13;;;9.60;91.80;;;;;;5012824;28;20173;-90
2022/11/10 02:48:48;;;;;;;16.77;4.43;;;9.60;91.80;;;;;;5012904;28;20518;-90
2022/11/10 02:51:14;;;;;;;14.27;3.73;;;9.60;91.70;;;;;;5013165;28;20173;-90
2022/11/10 02:57:01;;;;;;;9.80;4.10;;;9.50;91.70;;;;;;5014291;28;20534;-89
2022/11/10 02:59:27;;;;;;;12.33;4.50;;;9.50;91.80;;;;;;5012928;28;20205;-90
2022/11/10 03:01:52;;;;;;;13.83;4.87;;;9.40;91.90;;;;;;5012720;28;20173;-90
2022/11/10 03:04:18;;;;;;;14.83;4.50;;;9.50;92.00;;;;;;5014084;28;20198;-90
2022/11/10 03:06:43;;;;;;;10.67;4.53;;;9.40;91.90;;;;;;5013331;28;20208;-90
2022/11/10 03:09:09;;;;;;;14.73;5.23;;;9.30;91.90;;;;;;5012994;28;20204;-90
2022/11/10 03:11:35;;;;;;;10.97;4.30;;;9.30;92.10;;;;;;5012615;28;20178;-89
2022/11/10 03:14:00;;;;;;;11.57;4.83;;;9.30;92.10;;;;;;5013452;28;20181;-90
2022/11/10 03:16:26;;;;;;;9.00;4.80;;;9.30;92.10;;;;;;5013537;28;20201;-90
2022/11/10 03:18:51;;;;;;;9.50;4.17;;;9.30;92.10;;;;;;5013774;28;20197;-90
2022/11/10 03:21:17;;;;;;;13.83;4.57;;;9.30;92.10;;;;;;5012699;28;20207;-90
2022/11/10 03:23:42;;;;;;;10.90;4.07;;;9.30;92.10;;;;;;5013723;28;20173;-90
2022/11/10 03:26:08;;;;;;;13.50;4.67;;;9.30;92.10;;;;;;5012846;28;20243;-90
2022/11/10 03:28:33;;;;;;;13.53;4.43;;;9.30;92.10;;;;;;5012563;28;20181;-90
2022/11/10 03:30:59;;;;;;;15.20;4.47;;;9.30;92.10;;;;;;5012655;28;20183;-90
2022/11/10 03:33:25;;;;;;;13.43;5.07;;;9.30;92.10;;;;;;5012474;28;20177;-90
2022/11/10 03:35:50;;;;;;;11.57;5.00;;;9.20;92.10;;;;;;5012920;28;20674;-90
2022/11/10 03:38:16;;;;;;;11.57;4.93;;;9.20;92.10;;;;;;5012660;28;20189;-90
2022/11/10 03:40:41;;;;;;;12.43;5.17;;;9.20;92.10;;;;;;5012535;28;20173;-90
2022/11/10 03:43:10;;;;;;;15.10;5.03;;;9.20;92.10;;;;;;5012387;28;20578;-90
2022/11/10 03:45:35;;;;;;;17.13;5.67;;;9.20;92.10;;;;;;5012397;28;20197;-90
2022/11/10 03:48:01;;;;;;;13.00;5.40;;;9.20;92.10;;;;;;5013690;28;20173;-90
2022/11/10 03:50:26;;;;;;;14.50;6.27;;;9.10;92.10;;;;;;5012222;28;20181;-90
2022/11/10 03:52:52;;;;;;;13.73;6.63;;;9.10;92.20;;;;;;5012382;28;20178;-90
2022/11/10 03:55:18;;;;;;;13.80;6.67;;;9.10;92.30;;;;;;5011914;28;20197;-90
2022/11/10 03:57:44;;;;;;;13.93;6.50;;;9.10;92.40;;;;;;5012291;28;20177;-90
2022/11/10 04:00:11;;;;;;;16.30;6.77;;;9.00;92.40;;;;;;5012254;28;20587;-90
2022/11/10 04:02:37;;;;;;;17.10;7.07;;;9.10;92.50;;;;;;5012151;28;20200;-90
2022/11/10 04:10:39;;;;;;;13.23;7.67;;;9.20;92.70;;;;;;5017202;28;20207;-90
2022/11/10 04:15:50;;;;;;;15.80;8.50;;;9.30;92.80;;;;;;5016536;28;20235;-90
2022/11/10 04:18:25;;;;;;;14.10;9.60;;;9.50;92.80;;;;;;5016358;28;20177;-90
2022/11/10 04:20:59;;;;;;;16.77;9.03;;;9.40;92.80;;;;;;5015053;28;20172;-90
2022/11/10 04:23:35;;;;;;;22.30;9.03;;;9.50;92.80;;;;;;5015225;28;20176;-90
2022/11/10 04:28:54;;;;;;;27.43;10.00;;;9.40;92.60;;;;;;5016869;28;20173;-90
2022/11/10 04:31:21;;;;;;;19.80;10.67;;;9.40;92.70;;;;;;5016341;28;20169;-90
2022/11/10 04:33:47;;;;;;;25.27;11.27;;;9.40;92.70;;;;;;5014805;28;20177;-91
2022/11/10 04:36:16;;;;;;;30.53;11.93;;;9.40;92.80;;;;;;5014929;28;20178;-90
2022/11/10 04:38:42;;;;;;;21.80;10.43;;;9.50;92.90;;;;;;5016032;28;20575;-90
2022/11/10 04:41:08;;;;;;;25.13;11.93;;;9.40;92.80;;;;;;5014783;28;20169;-90
2022/11/10 04:43:33;;;;;;;23.97;11.73;;;9.40;92.90;;;;;;5015987;28;20574;-90
2022/11/10 04:46:00;;;;;;;28.43;12.40;;;9.50;92.90;;;;;;5019695;28;20243;-91
2022/11/10 04:48:26;;;;;;;31.73;12.57;;;9.50;93.00;;;;;;5017512;28;20635;-90
2022/11/10 04:50:52;;;;;;;33.13;12.83;;;9.50;93.00;;;;;;5018285;28;20173;-90
2022/11/10 04:53:19;;;;;;;30.57;14.23;;;9.40;93.00;;;;;;5017575;28;20276;-90
2022/11/10 04:55:45;;;;;;;28.40;12.70;;;9.50;93.10;;;;;;5017858;28;20225;-90
2022/11/10 04:58:11;;;;;;;34.90;15.53;;;9.50;93.10;;;;;;5017595;28;20201;-91
2022/11/10 05:00:37;;;;;;;29.10;14.37;;;9.50;93.10;;;;;;5017893;28;20205;-91
2022/11/10 05:03:05;;;;;;;29.90;14.70;;;9.40;93.10;;;;;;5017469;28;20235;-90
2022/11/10 05:05:31;;;;;;;29.23;13.67;;;9.50;93.20;;;;;;5018049;28;20205;-90
2022/11/10 05:07:57;;;;;;;28.57;14.80;;;9.40;93.20;;;;;;5017791;28;20189;-91
2022/11/10 05:10:22;;;;;;;30.00;14.63;;;9.50;93.30;;;;;;5017881;28;20181;-91
2022/11/10 05:12:48;;;;;;;35.93;15.03;;;9.50;93.30;;;;;;5017084;28;20192;-90
2022/11/10 05:15:14;;;;;;;27.20;14.40;;;9.50;93.20;;;;;;5017473;28;20275;-91
2022/11/10 05:17:39;;;;;;;30.47;14.60;;;9.50;93.20;;;;;;5017810;28;20232;-91
2022/11/10 05:20:06;;;;;;;35.23;16.23;;;9.50;93.20;;;;;;5017298;28;20209;-90
2022/11/10 05:22:31;;;;;;;28.37;14.77;;;9.50;93.30;;;;;;5017857;28;20173;-91
2022/11/10 05:24:57;;;;;;;23.10;14.37;;;9.50;93.30;;;;;;5017108;28;20189;-90
2022/11/10 05:27:22;;;;;;;31.37;15.60;;;9.40;93.30;;;;;;5017057;28;20185;-90
2022/11/10 05:29:48;;;;;;;29.33;15.03;;;9.40;93.30;;;;;;5017964;28;20259;-90
2022/11/10 05:32:13;;;;;;;31.13;15.50;;;9.40;93.30;;;;;;5017006;28;20609;-91
2022/11/10 05:34:39;;;;;;;33.90;16.13;;;9.50;93.30;;;;;;5016665;28;20208;-91
2022/11/10 05:37:04;;;;;;;33.80;15.97;;;9.40;93.30;;;;;;5016545;28;20196;-90
2022/11/10 05:39:30;;;;;;;29.27;14.37;;;9.40;93.30;;;;;;5016869;28;20228;-90
2022/11/10 05:41:56;;;;;;;33.03;15.30;;;9.40;93.30;;;;;;5016792;28;20204;-90
2022/11/10 05:44:21;;;;;;;34.70;14.00;;;9.40;93.20;;;;;;5016875;28;20201;-91
2022/11/10 05:46:47;;;;;;;26.17;13.27;;;9.30;93.20;;;;;;5016831;28;20191;-90
2022/11/10 05:49:12;;;;;;;29.73;13.77;;;9.30;93.20;;;;;;5017813;28;20223;-90
2022/11/10 05:51:38;;;;;;;37.47;16.30;;;9.30;93.20;;;;;;5016488;28;20231;-91
2022/11/10 05:54:04;;;;;;;38.43;14.77;;;9.30;93.20;;;;;;5016246;28;20189;-90
2022/11/10 05:56:29;;;;;;;25.93;14.93;;;9.30;93.20;;;;;;5016839;28;20211;-90
2022/11/10 05:58:55;;;;;;;33.63;14.77;;;9.30;93.20;;;;;;5016553;28;20224;-90
2022/11/10 06:01:20;;;;;;;28.03;14.13;;;9.30;93.30;;;;;;5016249;28;20185;-90
2022/11/10 06:03:46;;;;;;;35.53;16.27;;;9.30;93.30;;;;;;5016799;28;20512;-90
2022/11/10 06:06:11;;;;;;;33.53;14.27;;;9.30;93.30;;;;;;5016258;28;20181;-91
2022/11/10 06:08:37;;;;;;;23.57;13.20;;;9.30;93.30;;;;;;5016542;28;20716;-90
2022/11/10 06:11:03;;;;;;;34.40;15.53;;;9.30;93.30;;;;;;5016148;28;20207;-91
2022/11/10 06:13:28;;;;;;;31.43;14.90;;;9.20;93.30;;;;;;5016571;28;20183;-90
2022/11/10 06:15:54;;;;;;;32.20;14.13;;;9.20;93.30;;;;;;5015792;28;20217;-90
2022/11/10 06:18:20;;;;;;;39.00;13.30;;;9.20;93.40;;;;;;5015986;28;20173;-90
2022/11/10 06:20:46;;;;;;;30.77;15.53;;;9.20;93.40;;;;;;5015738;28;20173;-90
2022/11/10 06:23:13;;;;;;;28.77;12.60;;;9.20;93.30;;;;;;5015995;28;20558;-91
2022/11/10 06:25:39;;;;;;;36.17;15.90;;;9.10;93.30;;;;;;5015525;28;20197;-90
2022/11/10 06:28:06;;;;;;;23.50;13.10;;;9.20;93.40;;;;;;5015414;28;20180;-90
2022/11/10 06:30:34;;;;;;;29.47;14.27;;;9.10;93.40;;;;;;5015877;28;20180;-90
2022/11/10 06:33:00;;;;;;;34.00;13.23;;;9.10;93.40;;;;;;5015881;28;20181;-90
2022/11/10 06:35:26;;;;;;;31.07;14.70;;;9.20;93.50;;;;;;5015509;28;20197;-90
2022/11/10 06:38:12;;;;;;;34.50;14.13;;;9.10;93.40;;;;;;5016184;28;20193;-91
2022/11/10 06:40:38;;;;;;;28.60;13.53;;;9.10;93.40;;;;;;5016164;28;20250;-91
2022/11/10 06:43:03;;;;;;;34.47;14.80;;;9.10;93.40;;;;;;5015970;28;20200;-91
2022/11/10 06:45:29;;;;;;;28.70;13.67;;;9.00;93.40;;;;;;5015537;28;20284;-90
2022/11/10 06:48:02;;;;;;;40.50;14.53;;;8.90;93.40;;;;;;5015986;28;20173;-90
2022/11/10 06:50:28;;;;;;;27.80;15.03;;;8.90;93.50;;;;;;5015917;28;20166;-90
2022/11/10 06:52:55;;;;;;;32.90;14.83;;;8.90;93.50;;;;;;5015427;28;20235;-90
2022/11/10 06:55:21;;;;;;;27.77;14.33;;;8.90;93.50;;;;;;5014818;28;20228;-90
2022/11/10 06:57:46;;;;;;;41.47;15.83;;;9.00;93.60;;;;;;5016221;28;20181;-90
2022/11/10 07:00:13;;;;;;;38.10;14.50;;;8.90;93.50;;;;;;5015356;28;20765;-90
2022/11/10 07:02:38;;;;;;;33.83;14.80;;;8.90;93.60;;;;;;5015305;28;20551;-90
2022/11/10 07:05:04;;;;;;;31.67;14.87;;;8.90;93.60;;;;;;5015424;28;20276;-90
2022/11/10 07:07:30;;;;;;;37.80;14.97;;;8.90;93.60;;;;;;5015459;28;20178;-90
2022/11/10 07:09:55;;;;;;;35.87;14.67;;;8.90;93.60;;;;;;5015941;28;20243;-90
2022/11/10 07:12:21;;;;;;;33.97;15.97;;;8.90;93.70;;;;;;5015910;28;20253;-91
2022/11/10 07:14:46;;;;;;;32.63;14.50;;;9.00;93.70;;;;;;5015057;28;20311;-90
2022/11/10 07:17:12;;;;;;;37.27;16.70;;;9.00;93.70;;;;;;5015075;28;20317;-90
2022/11/10 07:19:37;;;;;;;28.83;14.47;;;9.00;93.70;;;;;;5014972;28;20695;-91
2022/11/10 07:22:03;;;;;;;37.07;15.13;;;9.00;93.70;;;;;;5015725;28;20640;-90
2022/11/10 07:24:29;;;;;;;31.10;15.63;;;9.10;93.70;;;;;;5015411;28;20201;-90
2022/11/10 07:26:56;;;;;;;41.27;16.30;;;9.10;93.70;;;;;;5014982;28;20173;-91
2022/11/10 07:29:22;;;;;;;44.77;16.07;;;9.10;93.70;;;;;;5014945;28;20174;-90
2022/11/10 07:31:47;;;;;;;43.10;17.50;;;9.20;93.70;;;;;;5014359;28;20204;-89
2022/11/10 07:34:13;;;;;;;34.30;16.53;;;9.20;93.70;;;;;;5013839;28;20212;-88
2022/11/10 07:36:38;;;;;;;37.63;17.70;;;9.20;93.60;;;;;;5013761;28;20223;-88
2022/11/10 07:39:04;;;;;;;41.03;16.80;;;9.20;93.70;;;;;;5014027;28;20201;-88
2022/11/10 07:41:30;;;;;;;38.80;17.90;;;9.30;93.60;;;;;;5019417;28;20598;-88
2022/11/10 07:43:55;;;;;;;32.70;16.37;;;9.30;93.60;;;;;;5019339;28;20210;-90
2022/11/10 07:46:21;;;;;;;38.77;17.90;;;9.30;93.60;;;;;;5019717;28;20260;-90
2022/11/10 07:48:49;;;;;;;41.67;19.57;;;9.30;93.60;;;;;;5021377;28;20195;-92
2022/11/10 07:51:15;;;;;;;41.53;19.23;;;9.30;93.60;;;;;;5019297;28;20658;-90
2022/11/10 07:53:40;;;;;;;41.40;19.67;;;9.40;93.60;;;;;;5018291;28;20177;-89
2022/11/10 07:56:06;;;;;;;41.43;19.63;;;9.50;93.60;;;;;;5018000;28;20205;-89
2022/11/10 07:58:33;;;;;;;51.57;20.80;;;9.50;93.60;;;;;;5018221;28;20228;-90
2022/11/10 08:00:58;;;;;;;32.70;16.80;;;9.50;93.50;;;;;;5021114;28;20169;-90
2022/11/10 08:03:24;;;;;;;37.57;21.07;;;9.50;93.50;;;;;;5017642;28;20547;-89
2022/11/10 08:05:50;;;;;;;44.77;19.17;;;9.60;93.50;;;;;;5017373;28;20197;-90
2022/11/10 08:08:16;;;;;;;39.43;21.57;;;9.60;93.50;;;;;;5019846;28;20525;-90
2022/11/10 08:10:45;;;;;;;35.40;19.43;;;9.70;93.40;;;;;;5018333;28;20185;-90
2022/11/10 08:13:12;;;;;;;46.63;21.90;;;9.80;93.40;;;;;;5018924;28;20173;-90
2022/11/10 08:15:38;;;;;;;34.07;19.23;;;9.80;93.30;;;;;;5017575;28;20221;-90
2022/11/10 08:18:07;;;;;;;34.67;23.07;;;9.80;93.30;;;;;;5017955;28;20196;-90
2022/11/10 08:20:33;;;;;;;47.33;26.13;;;9.90;93.30;;;;;;5018283;28;20203;-90
2022/11/10 08:23:03;;;;;;;40.20;19.07;;;9.90;93.20;;;;;;5018136;28;20177;-90
2022/11/10 08:25:31;;;;;;;55.50;23.27;;;10.00;93.10;;;;;;5018080;28;20201;-90
2022/11/10 08:28:03;;;;;;;38.07;22.57;;;10.20;93.10;;;;;;5018164;28;20201;-91
2022/11/10 08:30:29;;;;;;;38.13;22.77;;;10.20;92.90;;;;;;5017791;28;20180;-89
2022/11/10 08:33:00;;;;;;;36.80;21.10;;;10.30;92.80;;;;;;5017293;28;20173;-90
2022/11/10 08:35:28;;;;;;;46.77;22.33;;;10.30;92.80;;;;;;5018746;28;20189;-90
2022/11/10 08:37:54;;;;;;;47.77;23.57;;;10.20;92.70;;;;;;5017210;28;20208;-88
2022/11/10 08:40:21;;;;;;;42.80;22.40;;;10.30;92.60;;;;;;5016571;28;20618;-89
2022/11/10 08:42:47;;;;;;;45.20;23.50;;;10.30;92.50;;;;;;5016397;28;20183;-87
2022/11/10 08:45:14;;;;;;;48.27;23.07;;;10.30;92.60;;;;;;5016606;28;20675;-88
2022/11/10 08:47:39;;;;;;;41.93;21.53;;;10.30;92.60;;;;;;5016606;28;20212;-88
2022/11/10 08:50:06;;;;;;;38.43;22.83;;;10.30;92.60;;;;;;5016046;28;20185;-88
2022/11/10 08:52:32;;;;;;;38.43;19.40;;;10.30;92.50;;;;;;5017400;28;20695;-87
2022/11/10 08:55:00;;;;;;;33.27;17.90;;;10.30;92.50;;;;;;5017184;28;20256;-88
2022/11/10 08:57:26;;;;;;;37.70;20.47;;;10.30;92.50;;;;;;5017348;28;20184;-88
2022/11/10 08:59:51;;;;;;;53.23;21.50;;;10.30;92.40;;;;;;5015963;28;20197;-87
2022/11/10 09:02:17;;;;;;;40.30;22.57;;;10.50;92.50;;;;;;5016296;28;20240;-88
2022/11/10 09:04:42;;;;;;;42.20;23.63;;;10.50;92.30;;;;;;5016099;28;20189;-88
2022/11/10 09:07:08;;;;;;;40.40;21.63;;;10.70;92.20;;;;;;5017202;28;20204;-87
2022/11/10 09:09:33;;;;;;;42.77;23.33;;;10.90;92.30;;;;;;5016121;28;20184;-88
2022/11/10 09:11:59;;;;;;;45.67;22.13;;;10.90;92.00;;;;;;5016354;28;20557;-89
2022/11/10 09:14:24;;;;;;;40.57;22.73;;;10.90;92.00;;;;;;5015878;28;20220;-88
2022/11/10 09:16:50;;;;;;;36.77;21.73;;;10.80;91.80;;;;;;5015695;28;20178;-89
2022/11/10 09:19:15;;;;;;;48.20;23.07;;;10.80;91.60;;;;;;5017164;28;20208;-89
2022/11/10 09:21:41;;;;;;;38.20;20.53;;;10.80;91.70;;;;;;5016193;28;20714;-89
2022/11/10 09:24:07;;;;;;;38.00;22.07;;;10.80;91.50;;;;;;5016003;28;20751;-89
2022/11/10 09:26:33;;;;;;;40.93;22.87;;;10.80;91.60;;;;;;5017454;28;20192;-91
2022/11/10 09:28:58;;;;;;;42.13;22.10;;;10.80;91.70;;;;;;5018330;28;20187;-91
2022/11/10 09:31:24;;;;;;;39.87;21.23;;;11.10;91.80;;;;;;5018395;28;20178;-91
2022/11/10 09:33:50;;;;;;;33.30;21.80;;;11.20;91.50;;;;;;5018659;28;20204;-91
2022/11/10 09:36:16;;;;;;;42.83;22.97;;;11.20;91.30;;;;;;5021264;28;20685;-91
2022/11/10 09:38:41;;;;;;;44.70;22.90;;;11.20;91.20;;;;;;5018947;28;20185;-89
2022/11/10 09:41:11;;;;;;;33.33;19.90;;;11.20;91.20;;;;;;5019437;28;20219;-90
2022/11/10 09:44:00;;;;;;;43.30;21.73;;;11.50;91.10;;;;;;5017260;28;20243;-89
2022/11/10 09:46:48;;;;;;;46.83;22.20;;;11.60;90.80;;;;;;5017773;28;20185;-90
2022/11/10 09:49:29;;;;;;;37.87;18.23;;;11.60;90.40;;;;;;5016244;28;20173;-91
2022/11/10 09:51:56;;;;;;;40.33;20.23;;;11.60;90.20;;;;;;5017943;28;20177;-90
2022/11/10 09:54:33;;;;;;;36.87;20.07;;;11.60;90.20;;;;;;5023261;28;20202;-91
2022/11/10 09:56:59;;;;;;;41.50;19.73;;;11.70;90.20;;;;;;5023592;28;20272;-91
2022/11/10 09:59:31;;;;;;;38.23;19.67;;;11.70;90.10;;;;;;5027222;28;20205;-91
2022/11/10 10:02:04;;;;;;;32.20;16.97;;;11.70;89.80;;;;;;5030850;28;20186;-92
2022/11/10 10:05:08;;;;;;;38.57;17.57;;;11.90;89.90;;;;;;5024594;28;20251;-91
2022/11/10 10:07:47;;;;;;;41.97;19.97;;;11.90;89.70;;;;;;5020451;28;20209;-91
2022/11/10 10:10:26;;;;;;;42.10;19.40;;;11.90;89.60;;;;;;5019591;28;20192;-89
2022/11/10 10:13:24;;;;;;;37.17;18.83;;;11.90;89.60;;;;;;5019073;28;20173;-91
2022/11/10 10:16:07;;;;;;;29.77;17.77;;;11.90;89.50;;;;;;5021982;28;20241;-90
2022/11/10 10:18:45;;;;;;;35.47;19.07;;;11.80;89.30;;;;;;5018340;28;20225;-90
2022/11/10 10:21:39;;;;;;;34.93;19.20;;;11.80;89.60;;;;;;5019439;28;20161;-90
2022/11/10 10:24:11;;;;;;;33.90;18.37;;;11.90;89.70;;;;;;5019568;28;20169;-89
2022/11/10 10:26:40;;;;;;;42.60;18.47;;;12.00;89.50;;;;;;5019480;28;20164;-90
2022/11/10 10:29:09;;;;;;;32.27;16.97;;;12.00;89.40;;;;;;5018926;28;20207;-90
2022/11/10 10:31:42;;;;;;;27.23;16.67;;;12.00;89.50;;;;;;5019569;28;20268;-90
2022/11/10 10:34:22;;;;;;;35.17;16.20;;;12.10;89.30;;;;;;5017555;28;20197;-89
2022/11/10 10:36:48;;;;;;;34.57;15.70;;;12.00;89.00;;;;;;5016429;28;20165;-90
2022/11/10 10:39:21;;;;;;;32.40;16.00;;;12.10;89.00;;;;;;5018691;28;20208;-91
2022/11/10 10:41:46;;;;;;;35.67;16.73;;;12.10;89.00;;;;;;5030577;28;20170;-91
2022/11/10 10:44:17;;;;;;;26.97;15.97;;;12.20;89.10;;;;;;5025194;28;20260;-90
2022/11/10 10:47:09;;;;;;;34.03;15.57;;;12.20;88.80;;;;;;5014232;28;20224;-91
2022/11/10 10:49:35;;;;;;;37.53;16.90;;;12.30;88.90;;;;;;5010654;28;20245;-89
2022/11/10 10:52:12;;;;;;;35.23;14.37;;;12.30;88.80;;;;;;5012788;28;20173;-87
2022/11/10 10:54:38;;;;;;;36.93;14.30;;;12.30;88.50;;;;;;5012808;28;20205;-89
2022/11/10 10:57:27;;;;;;;36.30;13.47;;;12.40;88.30;;;;;;5013106;28;20553;-89
2022/11/10 11:00:18;;;;;;;30.60;14.17;;;12.40;88.10;;;;;;5020004;28;20203;-90
2022/11/10 11:03:00;;;;;;;33.17;12.60;;;12.50;88.00;;;;;;5025168;28;20167;-90
2022/11/10 11:05:26;;;;;;;26.73;11.47;;;12.60;87.60;;;;;;5027409;28;20189;-91
2022/11/10 11:07:57;;;;;;;25.33;11.47;;;12.80;87.80;;;;;;5023941;28;20324;-90
2022/11/10 11:10:27;;;;;;;29.67;11.30;;;12.80;87.50;;;;;;5014002;28;20671;-89
2022/11/10 11:12:52;;;;;;;35.03;11.80;;;12.80;87.30;;;;;;5015142;28;20717;-89
2022/11/10 11:15:28;;;;;;;20.97;9.23;;;12.80;87.40;;;;;;5018087;28;20221;-89
2022/11/10 11:18:12;;;;;;;29.47;11.13;;;12.80;86.80;;;;;;5016597;28;20663;-88
2022/11/10 11:21:01;;;;;;;22.77;9.90;;;12.80;86.90;;;;;;5016691;28;20209;-90
2022/11/10 11:23:55;;;;;;;28.57;10.30;;;12.80;87.00;;;;;;5016379;28;20177;-89
2022/11/10 11:26:51;;;;;;;33.23;11.27;;;13.00;86.90;;;;;;5016933;28;20264;-89
2022/11/10 11:29:36;;;;;;;24.70;9.83;;;13.00;86.30;;;;;;5017850;28;20158;-89
2022/11/10 11:32:40;;;;;;;26.13;10.00;;;13.00;85.70;;;;;;5016247;28;20201;-90
2022/11/10 11:35:20;;;;;;;21.27;8.67;;;13.00;85.90;;;;;;5024480;28;20252;-90
2022/11/10 11:38:06;;;;;;;23.70;8.37;;;13.00;85.90;;;;;;5041878;28;20225;-89
2022/11/10 11:40:32;;;;;;;24.57;8.93;;;13.10;85.80;;;;;;5038933;28;20216;-90
2022/11/10 11:43:21;;;;;;;23.17;8.13;;;13.10;85.20;;;;;;5025930;28;20161;-92
2022/11/10 11:46:03;;;;;;;24.63;8.37;;;13.10;85.40;;;;;;5022796;28;20212;-91
2022/11/10 11:49:06;;;;;;;18.73;8.03;;;13.10;85.60;;;;;;5038879;28;20161;-90
2022/11/10 11:51:55;;;;;;;21.30;7.97;;;13.10;85.70;;;;;;5008567;28;20284;-91
2022/11/10 11:54:40;;;;;;;18.10;8.07;;;13.10;85.60;;;;;;5025635;28;20220;-91
2022/11/10 11:57:44;;;;;;;22.23;7.77;;;13.10;85.70;;;;;;5018057;28;20161;-90
2022/11/10 12:00:17;;;;;;;19.13;7.23;;;13.10;85.60;;;;;;4962538;28;20231;-91
2022/11/10 12:03:08;;;;;;;28.27;7.77;;;13.10;85.30;;;;;;4971777;28;20175;-92
2022/11/10 12:05:58;;;;;;;22.63;7.67;;;13.10;85.50;;;;;;5019776;28;20233;-92
2022/11/10 12:09:16;;;;;;;23.37;7.00;;;13.10;85.10;;;;;;5031571;28;20178;-92
2022/11/10 12:11:53;;;;;;;27.93;9.27;;;13.10;85.30;;;;;;5003524;28;20172;-92
2022/11/10 12:14:57;;;;;;;22.03;8.37;;;13.10;85.50;;;;;;5031590;28;20224;-91
2022/11/10 12:17:42;;;;;;;23.23;7.43;;;13.00;85.40;;;;;;5031437;28;20232;-92
2022/11/10 12:20:32;;;;;;;20.83;6.87;;;13.00;85.20;;;;;;5033284;28;20193;-92
2022/11/10 12:23:35;;;;;;;18.40;6.90;;;13.10;85.20;;;;;;5031968;28;20181;-92
2022/11/10 12:26:22;;;;;;;18.37;6.47;;;13.10;85.00;;;;;;5028803;28;20181;-92
2022/11/10 12:28:59;;;;;;;23.23;6.67;;;13.10;85.00;;;;;;5029866;28;20185;-92
2022/11/10 12:31:31;;;;;;;23.80;6.37;;;13.10;85.20;;;;;;5024493;28;20158;-92
2022/11/10 12:34:13;;;;;;;15.53;5.37;;;13.10;85.60;;;;;;5030655;28;20174;-92
2022/11/10 12:36:43;;;;;;;18.80;6.80;;;13.10;85.10;;;;;;5029082;28;20166;-92
2022/11/10 12:39:41;;;;;;;22.83;8.33;;;13.10;85.00;;;;;;5027128;28;20239;-92
2022/11/10 12:42:16;;;;;;;21.13;6.43;;;13.10;85.30;;;;;;5030339;28;20174;-92
2022/11/10 12:45:00;;;;;;;20.10;6.50;;;13.10;85.50;;;;;;5027333;28;20197;-92
2022/11/10 12:47:30;;;;;;;19.17;6.60;;;13.10;85.20;;;;;;5026402;28;20162;-92
2022/11/10 12:50:23;;;;;;;19.50;5.07;;;13.10;85.40;;;;;;5027372;28;20188;-92
2022/11/10 12:52:57;;;;;;;18.17;5.07;;;13.10;85.20;;;;;;5025538;28;20166;-92
2022/11/10 12:55:45;;;;;;;22.17;5.50;;;13.10;84.50;;;;;;5021009;28;20201;-92
2022/11/10 12:58:14;;;;;;;23.20;6.37;;;13.00;84.90;;;;;;5015212;28;20193;-92
2022/11/10 13:01:10;;;;;;;14.57;5.10;;;13.00;84.60;;;;;;5028754;28;20205;-92
2022/11/10 13:03:37;;;;;;;14.43;5.07;;;13.00;84.70;;;;;;5000732;28;20192;-92
2022/11/10 13:06:24;;;;;;;23.17;6.80;;;13.10;84.30;;;;;;5025349;28;20197;-93
2022/11/10 13:08:58;;;;;;;22.57;4.43;;;13.00;84.60;;;;;;5025578;28;20233;-92